sensor_id;sensor_type;location;lat;lon;timestamp;temperature;humidity
17687;DHT22;8962;52.538;13.266;2022-08-19T00:01:18;21.40;99.90
17687;DHT22;8962;52.538;13.266;2022-08-19T00:03:46;21.40;99.90
17687;DHT22;8962;52.538;13.266;2022-08-19T00:06:13;21.40;99.90
17687;DHT22;8962;52.538;13.266;2022-08-19T00:08:40;21.30;99.90
17687;DHT22;8962;52.538;13.266;2022-08-19T00:11:09;21.30;99.90
17687;DHT22;8962;52.538;13.266;2022-08-19T00:13:37;21.40;99.90
17687;DHT22;8962;52.538;13.266;2022-08-19T00:16:06;21.40;99.90
17687;DHT22;8962;52.538;13.266;2022-08-19T00:18:34;21.50;99.90
17687;DHT22;8962;52.538;13.266;2022-08-19T00:21:01;21.40;99.90
17687;DHT22;8962;52.538;13.266;2022-08-19T00:23:30;21.40;99.90
17687;DHT22;8962;52.538;13.266;2022-08-19T00:26:00;21.40;99.90
17687;DHT22;8962;52.538;13.266;2022-08-19T00:28:27;21.30;99.90
17687;DHT22;8962;52.538;13.266;2022-08-19T00:30:54;21.40;99.90
17687;DHT22;8962;52.538;13.266;2022-08-19T00:33:24;21.40;99.90
17687;DHT22;8962;52.538;13.266;2022-08-19T00:35:51;21.50;99.90
17687;DHT22;8962;52.538;13.266;2022-08-19T00:38:18;21.50;99.90
17687;DHT22;8962;52.538;13.266;2022-08-19T00:40:48;21.50;99.90
17687;DHT22;8962;52.538;13.266;2022-08-19T00:43:19;21.50;99.90
17687;DHT22;8962;52.538;13.266;2022-08-19T00:45:47;21.50;99.90
17687;DHT22;8962;52.538;13.266;2022-08-19T00:48:16;21.50;99.90
17687;DHT22;8962;52.538;13.266;2022-08-19T00:50:47;21.50;99.90
17687;DHT22;8962;52.538;13.266;2022-08-19T00:53:17;21.40;99.90
17687;DHT22;8962;52.538;13.266;2022-08-19T00:55:46;21.50;99.90
17687;DHT22;8962;52.538;13.266;2022-08-19T00:58:16;21.60;99.90
17687;DHT22;8962;52.538;13.266;2022-08-19T01:00:44;21.50;99.90
17687;DHT22;8962;52.538;13.266;2022-08-19T01:03:13;21.50;99.90
17687;DHT22;8962;52.538;13.266;2022-08-19T01:05:43;21.50;99.90
17687;DHT22;8962;52.538;13.266;2022-08-19T01:08:12;21.50;99.90
17687;DHT22;8962;52.538;13.266;2022-08-19T01:10:44;21.50;99.90
17687;DHT22;8962;52.538;13.266;2022-08-19T01:13:14;21.40;99.90
17687;DHT22;8962;52.538;13.266;2022-08-19T01:15:44;21.40;99.90
17687;DHT22;8962;52.538;13.266;2022-08-19T01:18:14;21.30;99.90
17687;DHT22;8962;52.538;13.266;2022-08-19T01:20:42;21.30;99.90
17687;DHT22;8962;52.538;13.266;2022-08-19T01:23:11;21.40;99.90
17687;DHT22;8962;52.538;13.266;2022-08-19T01:25:42;21.30;99.90
17687;DHT22;8962;52.538;13.266;2022-08-19T01:28:17;21.30;99.90
17687;DHT22;8962;52.538;13.266;2022-08-19T01:30:45;21.30;99.90
17687;DHT22;8962;52.538;13.266;2022-08-19T01:33:13;21.20;99.90
17687;DHT22;8962;52.538;13.266;2022-08-19T01:35:41;21.20;99.90
17687;DHT22;8962;52.538;13.266;2022-08-19T01:38:19;21.20;99.90
17687;DHT22;8962;52.538;13.266;2022-08-19T01:40:47;21.20;99.90
17687;DHT22;8962;52.538;13.266;2022-08-19T01:43:14;21.20;99.90
17687;DHT22;8962;52.538;13.266;2022-08-19T01:45:41;21.20;99.90
17687;DHT22;8962;52.538;13.266;2022-08-19T01:48:08;21.20;99.90
17687;DHT22;8962;52.538;13.266;2022-08-19T01:50:37;21.20;99.90
17687;DHT22;8962;52.538;13.266;2022-08-19T01:53:07;21.20;99.90
17687;DHT22;8962;52.538;13.266;2022-08-19T01:55:40;21.30;99.90
17687;DHT22;8962;52.538;13.266;2022-08-19T01:58:08;21.30;99.90
17687;DHT22;8962;52.538;13.266;2022-08-19T02:00:39;21.20;99.90
17687;DHT22;8962;52.538;13.266;2022-08-19T02:03:06;21.30;99.90
17687;DHT22;8962;52.538;13.266;2022-08-19T02:05:35;21.30;99.90
17687;DHT22;8962;52.538;13.266;2022-08-19T02:08:03;21.30;99.90
17687;DHT22;8962;52.538;13.266;2022-08-19T02:10:30;21.30;99.90
17687;DHT22;8962;52.538;13.266;2022-08-19T02:12:59;21.20;99.90
17687;DHT22;8962;52.538;13.266;2022-08-19T02:15:26;21.20;99.90
17687;DHT22;8962;52.538;13.266;2022-08-19T02:17:53;21.10;99.90
17687;DHT22;8962;52.538;13.266;2022-08-19T02:20:20;21.00;99.90
17687;DHT22;8962;52.538;13.266;2022-08-19T02:22:48;21.00;99.90
17687;DHT22;8962;52.538;13.266;2022-08-19T02:25:15;20.90;99.90
17687;DHT22;8962;52.538;13.266;2022-08-19T02:27:42;20.90;99.90
17687;DHT22;8962;52.538;13.266;2022-08-19T02:30:14;20.80;99.90
17687;DHT22;8962;52.538;13.266;2022-08-19T02:32:42;20.60;99.90
17687;DHT22;8962;52.538;13.266;2022-08-19T02:35:11;20.50;99.90
17687;DHT22;8962;52.538;13.266;2022-08-19T02:37:38;20.40;99.90
17687;DHT22;8962;52.538;13.266;2022-08-19T02:40:37;20.30;99.90
17687;DHT22;8962;52.538;13.266;2022-08-19T02:43:07;20.20;99.90
17687;DHT22;8962;52.538;13.266;2022-08-19T02:45:38;20.20;99.90
17687;DHT22;8962;52.538;13.266;2022-08-19T02:48:06;20.20;99.90
17687;DHT22;8962;52.538;13.266;2022-08-19T02:50:37;20.20;99.90
17687;DHT22;8962;52.538;13.266;2022-08-19T02:53:04;20.20;99.90
17687;DHT22;8962;52.538;13.266;2022-08-19T02:55:32;20.20;99.90
17687;DHT22;8962;52.538;13.266;2022-08-19T02:58:00;20.20;99.90
17687;DHT22;8962;52.538;13.266;2022-08-19T03:00:27;20.20;99.90
17687;DHT22;8962;52.538;13.266;2022-08-19T03:02:56;20.20;99.90
17687;DHT22;8962;52.538;13.266;2022-08-19T03:05:23;20.20;99.90
17687;DHT22;8962;52.538;13.266;2022-08-19T03:07:50;20.20;99.90
17687;DHT22;8962;52.538;13.266;2022-08-19T03:10:19;20.20;99.90
17687;DHT22;8962;52.538;13.266;2022-08-19T03:12:46;20.20;99.90
17687;DHT22;8962;52.538;13.266;2022-08-19T03:15:13;20.20;99.90
17687;DHT22;8962;52.538;13.266;2022-08-19T03:17:42;20.20;99.90
17687;DHT22;8962;52.538;13.266;2022-08-19T03:20:10;20.20;99.90
17687;DHT22;8962;52.538;13.266;2022-08-19T03:22:37;20.20;99.90
17687;DHT22;8962;52.538;13.266;2022-08-19T03:25:05;20.20;99.90
17687;DHT22;8962;52.538;13.266;2022-08-19T03:27:32;20.20;99.90
17687;DHT22;8962;52.538;13.266;2022-08-19T03:29:59;20.10;99.90
17687;DHT22;8962;52.538;13.266;2022-08-19T03:32:26;20.20;99.90
17687;DHT22;8962;52.538;13.266;2022-08-19T03:34:53;20.10;99.90
17687;DHT22;8962;52.538;13.266;2022-08-19T03:37:22;20.20;99.90
17687;DHT22;8962;52.538;13.266;2022-08-19T03:39:49;20.20;99.90
17687;DHT22;8962;52.538;13.266;2022-08-19T03:42:18;20.10;99.90
17687;DHT22;8962;52.538;13.266;2022-08-19T03:44:45;20.10;99.90
17687;DHT22;8962;52.538;13.266;2022-08-19T03:47:12;20.20;99.90
17687;DHT22;8962;52.538;13.266;2022-08-19T03:49:42;20.10;99.90
17687;DHT22;8962;52.538;13.266;2022-08-19T03:52:09;20.10;99.90
17687;DHT22;8962;52.538;13.266;2022-08-19T03:54:38;20.10;99.90
17687;DHT22;8962;52.538;13.266;2022-08-19T03:57:08;20.10;99.90
17687;DHT22;8962;52.538;13.266;2022-08-19T03:59:37;20.00;99.90
17687;DHT22;8962;52.538;13.266;2022-08-19T04:02:08;20.00;99.90
17687;DHT22;8962;52.538;13.266;2022-08-19T04:04:36;20.00;99.90
17687;DHT22;8962;52.538;13.266;2022-08-19T04:07:04;20.10;99.90
17687;DHT22;8962;52.538;13.266;2022-08-19T04:09:33;20.10;99.90
17687;DHT22;8962;52.538;13.266;2022-08-19T04:12:04;20.10;99.90
17687;DHT22;8962;52.538;13.266;2022-08-19T04:14:32;20.10;99.90
17687;DHT22;8962;52.538;13.266;2022-08-19T04:17:02;20.10;99.90
17687;DHT22;8962;52.538;13.266;2022-08-19T04:19:31;20.10;99.90
17687;DHT22;8962;52.538;13.266;2022-08-19T04:22:01;20.10;99.90
17687;DHT22;8962;52.538;13.266;2022-08-19T04:24:29;20.10;99.90
17687;DHT22;8962;52.538;13.266;2022-08-19T04:26:58;20.10;99.90
17687;DHT22;8962;52.538;13.266;2022-08-19T04:29:27;20.10;99.90
17687;DHT22;8962;52.538;13.266;2022-08-19T04:31:56;20.20;99.90
17687;DHT22;8962;52.538;13.266;2022-08-19T04:34:26;20.10;99.90
17687;DHT22;8962;52.538;13.266;2022-08-19T04:36:57;20.10;99.90
17687;DHT22;8962;52.538;13.266;2022-08-19T04:39:29;20.10;99.90
17687;DHT22;8962;52.538;13.266;2022-08-19T04:42:11;20.10;99.90
17687;DHT22;8962;52.538;13.266;2022-08-19T04:44:57;20.10;99.90
17687;DHT22;8962;52.538;13.266;2022-08-19T04:47:29;20.10;99.90
17687;DHT22;8962;52.538;13.266;2022-08-19T04:49:58;20.20;99.90
17687;DHT22;8962;52.538;13.266;2022-08-19T04:52:26;20.20;99.90
17687;DHT22;8962;52.538;13.266;2022-08-19T04:54:53;20.20;99.90
17687;DHT22;8962;52.538;13.266;2022-08-19T04:57:24;20.30;99.90
17687;DHT22;8962;52.538;13.266;2022-08-19T04:59:54;20.50;99.90
17687;DHT22;8962;52.538;13.266;2022-08-19T05:02:25;20.50;99.90
17687;DHT22;8962;52.538;13.266;2022-08-19T05:04:56;20.50;99.90
17687;DHT22;8962;52.538;13.266;2022-08-19T05:07:26;20.50;99.90
17687;DHT22;8962;52.538;13.266;2022-08-19T05:09:54;20.40;99.90
17687;DHT22;8962;52.538;13.266;2022-08-19T05:12:25;20.50;99.90
17687;DHT22;8962;52.538;13.266;2022-08-19T05:14:53;20.50;99.90
17687;DHT22;8962;52.538;13.266;2022-08-19T05:17:20;20.40;99.90
17687;DHT22;8962;52.538;13.266;2022-08-19T05:19:49;20.60;99.90
17687;DHT22;8962;52.538;13.266;2022-08-19T05:22:35;20.60;99.90
17687;DHT22;8962;52.538;13.266;2022-08-19T05:25:06;20.70;99.90
17687;DHT22;8962;52.538;13.266;2022-08-19T05:27:35;20.80;99.90
17687;DHT22;8962;52.538;13.266;2022-08-19T05:30:05;20.90;99.90
17687;DHT22;8962;52.538;13.266;2022-08-19T05:32:34;20.90;99.90
17687;DHT22;8962;52.538;13.266;2022-08-19T05:35:03;20.90;99.90
17687;DHT22;8962;52.538;13.266;2022-08-19T05:37:31;21.00;99.90
17687;DHT22;8962;52.538;13.266;2022-08-19T05:39:58;21.10;99.90
17687;DHT22;8962;52.538;13.266;2022-08-19T05:42:27;21.10;99.90
17687;DHT22;8962;52.538;13.266;2022-08-19T05:44:56;21.20;99.90
17687;DHT22;8962;52.538;13.266;2022-08-19T05:47:23;21.30;99.90
17687;DHT22;8962;52.538;13.266;2022-08-19T05:49:50;21.40;99.90
17687;DHT22;8962;52.538;13.266;2022-08-19T05:52:22;21.60;99.90
17687;DHT22;8962;52.538;13.266;2022-08-19T05:54:49;21.70;99.90
17687;DHT22;8962;52.538;13.266;2022-08-19T05:57:16;21.80;99.90
17687;DHT22;8962;52.538;13.266;2022-08-19T05:59:43;22.00;99.90
17687;DHT22;8962;52.538;13.266;2022-08-19T06:02:15;22.00;99.90
17687;DHT22;8962;52.538;13.266;2022-08-19T06:04:42;22.10;99.90
17687;DHT22;8962;52.538;13.266;2022-08-19T06:07:09;22.10;99.90
17687;DHT22;8962;52.538;13.266;2022-08-19T06:09:38;22.10;99.90
17687;DHT22;8962;52.538;13.266;2022-08-19T06:12:06;22.10;99.90
17687;DHT22;8962;52.538;13.266;2022-08-19T06:14:34;22.00;99.90
17687;DHT22;8962;52.538;13.266;2022-08-19T06:17:03;22.10;99.90
17687;DHT22;8962;52.538;13.266;2022-08-19T06:19:32;22.20;99.90
17687;DHT22;8962;52.538;13.266;2022-08-19T06:22:00;22.20;99.90
17687;DHT22;8962;52.538;13.266;2022-08-19T06:24:29;22.30;99.90
17687;DHT22;8962;52.538;13.266;2022-08-19T06:26:59;22.40;99.90
17687;DHT22;8962;52.538;13.266;2022-08-19T06:29:27;22.60;99.90
17687;DHT22;8962;52.538;13.266;2022-08-19T06:31:58;22.50;99.90
17687;DHT22;8962;52.538;13.266;2022-08-19T06:34:26;22.50;99.90
17687;DHT22;8962;52.538;13.266;2022-08-19T06:36:56;22.50;99.90
17687;DHT22;8962;52.538;13.266;2022-08-19T06:39:30;22.60;99.90
17687;DHT22;8962;52.538;13.266;2022-08-19T06:42:00;22.70;99.90
17687;DHT22;8962;52.538;13.266;2022-08-19T06:44:30;22.80;99.90
17687;DHT22;8962;52.538;13.266;2022-08-19T06:47:03;22.80;99.90
17687;DHT22;8962;52.538;13.266;2022-08-19T06:49:32;22.80;99.90
17687;DHT22;8962;52.538;13.266;2022-08-19T06:52:00;22.80;99.90
17687;DHT22;8962;52.538;13.266;2022-08-19T06:54:28;22.70;99.90
17687;DHT22;8962;52.538;13.266;2022-08-19T06:56:56;22.70;99.90
17687;DHT22;8962;52.538;13.266;2022-08-19T06:59:25;22.80;99.90
17687;DHT22;8962;52.538;13.266;2022-08-19T07:01:55;22.70;99.90
17687;DHT22;8962;52.538;13.266;2022-08-19T07:04:31;22.70;99.90
17687;DHT22;8962;52.538;13.266;2022-08-19T07:07:02;22.70;99.90
17687;DHT22;8962;52.538;13.266;2022-08-19T07:09:31;22.70;99.90
17687;DHT22;8962;52.538;13.266;2022-08-19T07:11:59;22.70;99.90
17687;DHT22;8962;52.538;13.266;2022-08-19T07:14:28;22.60;99.90
17687;DHT22;8962;52.538;13.266;2022-08-19T07:16:56;22.60;99.90
17687;DHT22;8962;52.538;13.266;2022-08-19T07:19:26;22.50;99.90
17687;DHT22;8962;52.538;13.266;2022-08-19T07:21:57;22.60;99.90
17687;DHT22;8962;52.538;13.266;2022-08-19T07:24:26;22.50;99.90
17687;DHT22;8962;52.538;13.266;2022-08-19T07:26:56;22.50;99.90
17687;DHT22;8962;52.538;13.266;2022-08-19T07:29:27;22.50;99.90
17687;DHT22;8962;52.538;13.266;2022-08-19T07:31:56;22.60;99.90
17687;DHT22;8962;52.538;13.266;2022-08-19T07:34:24;22.60;99.90
17687;DHT22;8962;52.538;13.266;2022-08-19T07:36:52;22.70;99.90
17687;DHT22;8962;52.538;13.266;2022-08-19T07:39:24;22.70;99.90
17687;DHT22;8962;52.538;13.266;2022-08-19T07:41:51;22.70;99.90
17687;DHT22;8962;52.538;13.266;2022-08-19T07:44:19;22.70;99.90
17687;DHT22;8962;52.538;13.266;2022-08-19T07:46:51;22.50;99.90
17687;DHT22;8962;52.538;13.266;2022-08-19T07:49:20;22.60;99.90
17687;DHT22;8962;52.538;13.266;2022-08-19T07:51:50;22.70;99.90
17687;DHT22;8962;52.538;13.266;2022-08-19T07:54:20;22.90;99.90
17687;DHT22;8962;52.538;13.266;2022-08-19T07:56:47;23.00;99.90
17687;DHT22;8962;52.538;13.266;2022-08-19T07:59:15;23.10;99.90
17687;DHT22;8962;52.538;13.266;2022-08-19T08:01:43;23.10;99.90
17687;DHT22;8962;52.538;13.266;2022-08-19T08:04:11;23.00;99.90
17687;DHT22;8962;52.538;13.266;2022-08-19T08:06:56;23.00;99.90
17687;DHT22;8962;52.538;13.266;2022-08-19T08:09:42;23.00;99.90
17687;DHT22;8962;52.538;13.266;2022-08-19T08:12:14;23.20;99.90
17687;DHT22;8962;52.538;13.266;2022-08-19T08:14:45;23.20;99.90
17687;DHT22;8962;52.538;13.266;2022-08-19T08:17:14;23.30;99.90
17687;DHT22;8962;52.538;13.266;2022-08-19T08:19:46;23.40;99.90
17687;DHT22;8962;52.538;13.266;2022-08-19T08:22:18;23.50;99.90
17687;DHT22;8962;52.538;13.266;2022-08-19T08:25:02;23.70;99.90
17687;DHT22;8962;52.538;13.266;2022-08-19T08:27:31;23.60;99.90
17687;DHT22;8962;52.538;13.266;2022-08-19T08:29:58;23.50;99.90
17687;DHT22;8962;52.538;13.266;2022-08-19T08:32:25;23.50;99.90
17687;DHT22;8962;52.538;13.266;2022-08-19T08:34:54;23.50;99.90
17687;DHT22;8962;52.538;13.266;2022-08-19T08:37:22;23.40;99.90
17687;DHT22;8962;52.538;13.266;2022-08-19T08:39:50;23.10;99.90
17687;DHT22;8962;52.538;13.266;2022-08-19T08:42:22;22.90;99.90
17687;DHT22;8962;52.538;13.266;2022-08-19T08:44:57;23.00;99.90
17687;DHT22;8962;52.538;13.266;2022-08-19T08:47:30;22.90;99.90
17687;DHT22;8962;52.538;13.266;2022-08-19T08:50:05;22.90;99.90
17687;DHT22;8962;52.538;13.266;2022-08-19T08:52:44;22.90;99.90
17687;DHT22;8962;52.538;13.266;2022-08-19T08:55:17;22.90;99.90
17687;DHT22;8962;52.538;13.266;2022-08-19T08:57:51;23.00;99.90
17687;DHT22;8962;52.538;13.266;2022-08-19T09:00:25;22.80;99.90
17687;DHT22;8962;52.538;13.266;2022-08-19T09:02:53;22.80;99.90
17687;DHT22;8962;52.538;13.266;2022-08-19T09:05:23;22.80;99.90
17687;DHT22;8962;52.538;13.266;2022-08-19T09:07:57;22.80;99.90
17687;DHT22;8962;52.538;13.266;2022-08-19T09:10:32;22.80;99.90
17687;DHT22;8962;52.538;13.266;2022-08-19T09:13:09;22.70;99.90
17687;DHT22;8962;52.538;13.266;2022-08-19T09:15:46;22.70;99.90
17687;DHT22;8962;52.538;13.266;2022-08-19T09:18:15;22.70;99.90
17687;DHT22;8962;52.538;13.266;2022-08-19T09:20:45;22.60;99.90
17687;DHT22;8962;52.538;13.266;2022-08-19T09:23:13;22.50;99.90
17687;DHT22;8962;52.538;13.266;2022-08-19T09:25:41;22.70;99.90
17687;DHT22;8962;52.538;13.266;2022-08-19T09:28:08;22.70;99.90
17687;DHT22;8962;52.538;13.266;2022-08-19T09:30:41;22.90;99.90
17687;DHT22;8962;52.538;13.266;2022-08-19T09:33:08;23.30;99.90
17687;DHT22;8962;52.538;13.266;2022-08-19T09:35:36;23.60;99.90
17687;DHT22;8962;52.538;13.266;2022-08-19T09:38:05;23.70;99.90
17687;DHT22;8962;52.538;13.266;2022-08-19T09:40:33;23.90;99.90
17687;DHT22;8962;52.538;13.266;2022-08-19T09:43:02;23.90;99.90
17687;DHT22;8962;52.538;13.266;2022-08-19T09:45:31;24.10;99.90
17687;DHT22;8962;52.538;13.266;2022-08-19T09:47:58;24.00;99.90
17687;DHT22;8962;52.538;13.266;2022-08-19T09:50:25;24.10;99.90
17687;DHT22;8962;52.538;13.266;2022-08-19T09:52:53;24.20;99.90
17687;DHT22;8962;52.538;13.266;2022-08-19T09:55:22;23.90;99.90
17687;DHT22;8962;52.538;13.266;2022-08-19T09:57:49;23.80;99.90
17687;DHT22;8962;52.538;13.266;2022-08-19T10:00:16;23.80;99.90
17687;DHT22;8962;52.538;13.266;2022-08-19T10:02:43;23.80;99.90
17687;DHT22;8962;52.538;13.266;2022-08-19T10:05:11;23.50;99.90
17687;DHT22;8962;52.538;13.266;2022-08-19T10:07:55;23.30;99.90
17687;DHT22;8962;52.538;13.266;2022-08-19T10:10:24;23.40;99.90
17687;DHT22;8962;52.538;13.266;2022-08-19T10:12:52;23.50;99.90
17687;DHT22;8962;52.538;13.266;2022-08-19T10:15:20;23.70;99.90
17687;DHT22;8962;52.538;13.266;2022-08-19T10:17:47;23.80;99.90
17687;DHT22;8962;52.538;13.266;2022-08-19T10:20:15;23.80;99.90
17687;DHT22;8962;52.538;13.266;2022-08-19T10:22:43;24.10;99.90
17687;DHT22;8962;52.538;13.266;2022-08-19T10:25:10;24.30;99.90
17687;DHT22;8962;52.538;13.266;2022-08-19T10:27:40;24.50;99.90
17687;DHT22;8962;52.538;13.266;2022-08-19T10:30:08;24.50;99.90
17687;DHT22;8962;52.538;13.266;2022-08-19T10:32:36;24.40;99.90
17687;DHT22;8962;52.538;13.266;2022-08-19T10:35:03;24.20;99.90
17687;DHT22;8962;52.538;13.266;2022-08-19T10:37:34;24.30;99.90
17687;DHT22;8962;52.538;13.266;2022-08-19T10:40:03;24.20;99.90
17687;DHT22;8962;52.538;13.266;2022-08-19T10:42:31;24.40;99.90
17687;DHT22;8962;52.538;13.266;2022-08-19T10:45:00;24.30;99.90
17687;DHT22;8962;52.538;13.266;2022-08-19T10:47:35;24.10;99.90
17687;DHT22;8962;52.538;13.266;2022-08-19T10:50:03;23.80;99.90
17687;DHT22;8962;52.538;13.266;2022-08-19T10:52:56;23.90;99.90
17687;DHT22;8962;52.538;13.266;2022-08-19T10:55:24;24.00;99.90
17687;DHT22;8962;52.538;13.266;2022-08-19T10:58:16;23.70;99.90
17687;DHT22;8962;52.538;13.266;2022-08-19T11:00:51;23.50;99.90
17687;DHT22;8962;52.538;13.266;2022-08-19T11:03:19;23.50;99.90
17687;DHT22;8962;52.538;13.266;2022-08-19T11:05:57;23.50;99.90
17687;DHT22;8962;52.538;13.266;2022-08-19T11:08:26;23.50;99.90
17687;DHT22;8962;52.538;13.266;2022-08-19T11:10:54;23.40;99.90
17687;DHT22;8962;52.538;13.266;2022-08-19T11:13:26;23.30;99.90
17687;DHT22;8962;52.538;13.266;2022-08-19T11:16:00;23.40;99.90
17687;DHT22;8962;52.538;13.266;2022-08-19T11:18:28;23.40;99.90
17687;DHT22;8962;52.538;13.266;2022-08-19T11:20:55;23.30;99.90
17687;DHT22;8962;52.538;13.266;2022-08-19T11:23:31;23.30;99.90
17687;DHT22;8962;52.538;13.266;2022-08-19T11:25:59;23.60;99.90
17687;DHT22;8962;52.538;13.266;2022-08-19T11:28:26;23.60;99.90
17687;DHT22;8962;52.538;13.266;2022-08-19T11:30:55;23.60;99.90
17687;DHT22;8962;52.538;13.266;2022-08-19T11:33:23;23.60;99.90
17687;DHT22;8962;52.538;13.266;2022-08-19T11:35:52;23.60;99.90
17687;DHT22;8962;52.538;13.266;2022-08-19T11:38:19;23.60;99.90
17687;DHT22;8962;52.538;13.266;2022-08-19T11:40:54;23.50;99.90
17687;DHT22;8962;52.538;13.266;2022-08-19T11:43:21;23.20;99.90
17687;DHT22;8962;52.538;13.266;2022-08-19T11:45:49;23.10;99.90
17687;DHT22;8962;52.538;13.266;2022-08-19T11:48:19;23.00;99.90
17687;DHT22;8962;52.538;13.266;2022-08-19T11:50:49;23.00;99.90
17687;DHT22;8962;52.538;13.266;2022-08-19T11:53:16;23.10;99.90
17687;DHT22;8962;52.538;13.266;2022-08-19T11:55:44;23.20;99.90
17687;DHT22;8962;52.538;13.266;2022-08-19T11:58:12;23.20;99.90
17687;DHT22;8962;52.538;13.266;2022-08-19T12:00:40;23.40;99.90
17687;DHT22;8962;52.538;13.266;2022-08-19T12:03:07;23.50;99.90
17687;DHT22;8962;52.538;13.266;2022-08-19T12:05:36;23.60;99.90
17687;DHT22;8962;52.538;13.266;2022-08-19T12:08:05;23.60;99.90
17687;DHT22;8962;52.538;13.266;2022-08-19T12:10:35;23.70;99.90
17687;DHT22;8962;52.538;13.266;2022-08-19T12:13:03;24.00;99.90
17687;DHT22;8962;52.538;13.266;2022-08-19T12:15:30;24.10;99.90
17687;DHT22;8962;52.538;13.266;2022-08-19T12:18:02;24.10;99.90
17687;DHT22;8962;52.538;13.266;2022-08-19T12:20:30;24.30;99.90
17687;DHT22;8962;52.538;13.266;2022-08-19T12:22:57;24.40;99.90
17687;DHT22;8962;52.538;13.266;2022-08-19T12:25:26;24.30;99.90
17687;DHT22;8962;52.538;13.266;2022-08-19T12:27:55;24.40;99.90
17687;DHT22;8962;52.538;13.266;2022-08-19T12:30:21;24.40;99.90
17687;DHT22;8962;52.538;13.266;2022-08-19T12:32:49;24.40;99.90
17687;DHT22;8962;52.538;13.266;2022-08-19T12:35:17;24.40;99.90
17687;DHT22;8962;52.538;13.266;2022-08-19T12:37:45;24.20;99.90
17687;DHT22;8962;52.538;13.266;2022-08-19T12:40:14;24.30;99.90
17687;DHT22;8962;52.538;13.266;2022-08-19T12:42:43;24.20;99.90
17687;DHT22;8962;52.538;13.266;2022-08-19T12:45:12;24.10;99.90
17687;DHT22;8962;52.538;13.266;2022-08-19T12:47:40;24.00;99.90
17687;DHT22;8962;52.538;13.266;2022-08-19T12:50:07;24.00;99.90
17687;DHT22;8962;52.538;13.266;2022-08-19T12:52:36;23.90;99.90
17687;DHT22;8962;52.538;13.266;2022-08-19T12:55:05;23.90;99.90
17687;DHT22;8962;52.538;13.266;2022-08-19T12:57:32;23.90;99.90
17687;DHT22;8962;52.538;13.266;2022-08-19T13:00:06;24.10;99.90
17687;DHT22;8962;52.538;13.266;2022-08-19T13:02:36;24.30;99.90
17687;DHT22;8962;52.538;13.266;2022-08-19T13:05:04;24.50;99.90
17687;DHT22;8962;52.538;13.266;2022-08-19T13:07:32;24.90;99.90
17687;DHT22;8962;52.538;13.266;2022-08-19T13:10:00;25.20;99.90
17687;DHT22;8962;52.538;13.266;2022-08-19T13:12:27;25.80;99.90
17687;DHT22;8962;52.538;13.266;2022-08-19T13:14:55;26.00;99.90
17687;DHT22;8962;52.538;13.266;2022-08-19T13:17:24;25.90;99.90
17687;DHT22;8962;52.538;13.266;2022-08-19T13:19:51;25.50;99.90
17687;DHT22;8962;52.538;13.266;2022-08-19T13:22:18;25.40;99.90
17687;DHT22;8962;52.538;13.266;2022-08-19T13:24:45;25.50;99.90
17687;DHT22;8962;52.538;13.266;2022-08-19T13:27:12;25.80;99.90
17687;DHT22;8962;52.538;13.266;2022-08-19T13:29:39;25.80;99.90
17687;DHT22;8962;52.538;13.266;2022-08-19T13:32:26;25.90;99.90
17687;DHT22;8962;52.538;13.266;2022-08-19T13:35:11;26.20;99.90
17687;DHT22;8962;52.538;13.266;2022-08-19T13:37:38;26.60;99.90
17687;DHT22;8962;52.538;13.266;2022-08-19T13:40:09;26.80;99.90
17687;DHT22;8962;52.538;13.266;2022-08-19T13:42:38;27.10;99.90
17687;DHT22;8962;52.538;13.266;2022-08-19T13:45:06;27.00;99.90
17687;DHT22;8962;52.538;13.266;2022-08-19T13:47:35;26.60;99.90
17687;DHT22;8962;52.538;13.266;2022-08-19T13:50:05;26.20;99.90
17687;DHT22;8962;52.538;13.266;2022-08-19T13:52:32;25.60;99.90
17687;DHT22;8962;52.538;13.266;2022-08-19T13:54:59;25.50;99.90
17687;DHT22;8962;52.538;13.266;2022-08-19T13:57:26;25.20;99.90
17687;DHT22;8962;52.538;13.266;2022-08-19T13:59:53;25.00;99.90
17687;DHT22;8962;52.538;13.266;2022-08-19T14:02:20;25.00;99.90
17687;DHT22;8962;52.538;13.266;2022-08-19T14:04:48;25.30;99.90
17687;DHT22;8962;52.538;13.266;2022-08-19T14:07:16;25.30;99.90
17687;DHT22;8962;52.538;13.266;2022-08-19T14:09:43;25.20;99.90
17687;DHT22;8962;52.538;13.266;2022-08-19T14:12:10;25.20;99.90
17687;DHT22;8962;52.538;13.266;2022-08-19T14:14:37;25.10;99.90
17687;DHT22;8962;52.538;13.266;2022-08-19T14:17:06;24.90;99.90
17687;DHT22;8962;52.538;13.266;2022-08-19T14:19:36;24.90;99.90
17687;DHT22;8962;52.538;13.266;2022-08-19T14:22:09;25.00;99.90
17687;DHT22;8962;52.538;13.266;2022-08-19T14:24:37;25.10;99.90
17687;DHT22;8962;52.538;13.266;2022-08-19T14:27:06;24.90;99.90
17687;DHT22;8962;52.538;13.266;2022-08-19T14:29:38;24.80;99.90
17687;DHT22;8962;52.538;13.266;2022-08-19T14:32:05;24.60;99.90
17687;DHT22;8962;52.538;13.266;2022-08-19T14:34:32;24.30;99.90
17687;DHT22;8962;52.538;13.266;2022-08-19T14:37:04;24.20;99.90
17687;DHT22;8962;52.538;13.266;2022-08-19T14:39:32;24.00;99.90
17687;DHT22;8962;52.538;13.266;2022-08-19T14:42:06;23.90;99.90
17687;DHT22;8962;52.538;13.266;2022-08-19T14:44:34;23.90;99.90
17687;DHT22;8962;52.538;13.266;2022-08-19T14:47:02;24.00;99.90
17687;DHT22;8962;52.538;13.266;2022-08-19T14:49:32;24.10;99.90
17687;DHT22;8962;52.538;13.266;2022-08-19T14:52:00;24.20;99.90
17687;DHT22;8962;52.538;13.266;2022-08-19T14:54:30;24.30;99.90
17687;DHT22;8962;52.538;13.266;2022-08-19T14:57:00;24.40;99.90
17687;DHT22;8962;52.538;13.266;2022-08-19T14:59:28;24.50;99.90
17687;DHT22;8962;52.538;13.266;2022-08-19T15:01:55;24.50;99.90
17687;DHT22;8962;52.538;13.266;2022-08-19T15:04:23;24.20;99.90
17687;DHT22;8962;52.538;13.266;2022-08-19T15:06:50;24.10;99.90
17687;DHT22;8962;52.538;13.266;2022-08-19T15:09:17;24.10;99.90
17687;DHT22;8962;52.538;13.266;2022-08-19T15:11:46;23.90;99.90
17687;DHT22;8962;52.538;13.266;2022-08-19T15:14:15;23.90;99.90
17687;DHT22;8962;52.538;13.266;2022-08-19T15:16:44;23.90;99.90
17687;DHT22;8962;52.538;13.266;2022-08-19T15:19:12;23.90;99.90
17687;DHT22;8962;52.538;13.266;2022-08-19T15:21:40;23.80;99.90
17687;DHT22;8962;52.538;13.266;2022-08-19T15:24:08;23.80;99.90
17687;DHT22;8962;52.538;13.266;2022-08-19T15:26:36;23.70;99.90
17687;DHT22;8962;52.538;13.266;2022-08-19T15:29:04;23.60;99.90
17687;DHT22;8962;52.538;13.266;2022-08-19T15:31:32;23.50;99.90
17687;DHT22;8962;52.538;13.266;2022-08-19T15:34:02;23.30;99.90
17687;DHT22;8962;52.538;13.266;2022-08-19T15:36:31;23.10;99.90
17687;DHT22;8962;52.538;13.266;2022-08-19T15:39:00;23.10;99.90
17687;DHT22;8962;52.538;13.266;2022-08-19T15:41:29;22.90;99.90
17687;DHT22;8962;52.538;13.266;2022-08-19T15:44:06;22.90;99.90